sensor_id;sensor_type;location;lat;lon;timestamp;P1;durP1;ratioP1;P2;durP2;ratioP2
23539;SDS011;11947;50.810;4.394;2022-12-05T00:00:22;130.07;;;41.35;;
23539;SDS011;11947;50.810;4.394;2022-12-05T00:02:48;126.28;;;42.13;;
23539;SDS011;11947;50.810;4.394;2022-12-05T00:05:16;124.95;;;41.42;;
23539;SDS011;11947;50.810;4.394;2022-12-05T00:07:50;134.77;;;42.15;;
23539;SDS011;11947;50.810;4.394;2022-12-05T00:10:15;134.35;;;41.25;;
23539;SDS011;11947;50.810;4.394;2022-12-05T00:12:44;137.55;;;41.40;;
23539;SDS011;11947;50.810;4.394;2022-12-05T00:15:10;141.52;;;42.45;;
23539;SDS011;11947;50.810;4.394;2022-12-05T00:17:37;129.55;;;40.78;;
23539;SDS011;11947;50.810;4.394;2022-12-05T00:20:07;140.70;;;40.63;;
23539;SDS011;11947;50.810;4.394;2022-12-05T00:22:39;129.45;;;39.72;;
23539;SDS011;11947;50.810;4.394;2022-12-05T00:25:08;131.40;;;39.45;;
23539;SDS011;11947;50.810;4.394;2022-12-05T00:27:38;127.05;;;38.75;;
23539;SDS011;11947;50.810;4.394;2022-12-05T00:30:07;130.43;;;37.55;;
23539;SDS011;11947;50.810;4.394;2022-12-05T00:32:36;120.13;;;39.05;;
23539;SDS011;11947;50.810;4.394;2022-12-05T00:35:02;124.00;;;38.20;;
23539;SDS011;11947;50.810;4.394;2022-12-05T00:37:27;129.38;;;40.78;;
23539;SDS011;11947;50.810;4.394;2022-12-05T00:39:53;119.05;;;36.90;;
23539;SDS011;11947;50.810;4.394;2022-12-05T00:42:21;122.20;;;37.67;;
23539;SDS011;11947;50.810;4.394;2022-12-05T00:44:50;136.15;;;37.67;;
23539;SDS011;11947;50.810;4.394;2022-12-05T00:47:15;115.90;;;35.15;;
23539;SDS011;11947;50.810;4.394;2022-12-05T00:49:41;115.45;;;36.60;;
23539;SDS011;11947;50.810;4.394;2022-12-05T00:52:07;121.75;;;35.65;;
23539;SDS011;11947;50.810;4.394;2022-12-05T00:54:32;123.38;;;34.83;;
23539;SDS011;11947;50.810;4.394;2022-12-05T00:56:58;111.25;;;34.58;;
23539;SDS011;11947;50.810;4.394;2022-12-05T00:59:24;107.10;;;34.53;;
23539;SDS011;11947;50.810;4.394;2022-12-05T01:01:52;109.45;;;35.13;;
23539;SDS011;11947;50.810;4.394;2022-12-05T01:04:21;119.68;;;35.45;;
23539;SDS011;11947;50.810;4.394;2022-12-05T01:06:48;109.78;;;34.80;;
23539;SDS011;11947;50.810;4.394;2022-12-05T01:09:16;107.82;;;34.13;;
23539;SDS011;11947;50.810;4.394;2022-12-05T01:11:44;106.05;;;34.33;;
23539;SDS011;11947;50.810;4.394;2022-12-05T01:14:11;115.85;;;34.13;;
23539;SDS011;11947;50.810;4.394;2022-12-05T01:16:39;107.43;;;35.00;;
23539;SDS011;11947;50.810;4.394;2022-12-05T01:19:12;120.88;;;34.95;;
23539;SDS011;11947;50.810;4.394;2022-12-05T01:21:41;106.35;;;34.03;;
23539;SDS011;11947;50.810;4.394;2022-12-05T01:24:08;122.70;;;35.80;;
23539;SDS011;11947;50.810;4.394;2022-12-05T01:26:35;119.13;;;34.88;;
23539;SDS011;11947;50.810;4.394;2022-12-05T01:32:01;108.63;;;33.65;;
23539;SDS011;11947;50.810;4.394;2022-12-05T01:34:27;104.43;;;32.75;;
23539;SDS011;11947;50.810;4.394;2022-12-05T01:36:52;116.22;;;33.10;;
23539;SDS011;11947;50.810;4.394;2022-12-05T01:39:18;121.90;;;34.45;;
23539;SDS011;11947;50.810;4.394;2022-12-05T01:41:46;110.03;;;32.17;;
23539;SDS011;11947;50.810;4.394;2022-12-05T01:46:48;99.20;;;31.60;;
23539;SDS011;11947;50.810;4.394;2022-12-05T01:49:17;107.75;;;33.20;;
23539;SDS011;11947;50.810;4.394;2022-12-05T01:51:54;105.45;;;31.40;;
23539;SDS011;11947;50.810;4.394;2022-12-05T01:56:52;105.60;;;31.90;;
23539;SDS011;11947;50.810;4.394;2022-12-05T01:59:22;108.55;;;32.47;;
23539;SDS011;11947;50.810;4.394;2022-12-05T02:01:50;119.70;;;33.97;;
23539;SDS011;11947;50.810;4.394;2022-12-05T02:04:16;110.30;;;35.03;;
23539;SDS011;11947;50.810;4.394;2022-12-05T02:06:42;136.50;;;37.38;;
23539;SDS011;11947;50.810;4.394;2022-12-05T02:09:07;123.13;;;36.97;;
23539;SDS011;11947;50.810;4.394;2022-12-05T02:11:33;136.88;;;37.33;;
23539;SDS011;11947;50.810;4.394;2022-12-05T02:14:29;146.57;;;37.88;;
23539;SDS011;11947;50.810;4.394;2022-12-05T02:17:20;140.73;;;38.25;;
23539;SDS011;11947;50.810;4.394;2022-12-05T02:20:07;149.98;;;38.05;;
23539;SDS011;11947;50.810;4.394;2022-12-05T02:22:52;145.23;;;37.92;;
23539;SDS011;11947;50.810;4.394;2022-12-05T02:34:46;155.40;;;40.05;;
23539;SDS011;11947;50.810;4.394;2022-12-05T02:37:28;205.50;;;44.70;;
23539;SDS011;11947;50.810;4.394;2022-12-05T02:40:05;434.77;;;52.00;;
23539;SDS011;11947;50.810;4.394;2022-12-05T02:42:59;230.25;;;44.80;;
23539;SDS011;11947;50.810;4.394;2022-12-05T02:50:56;174.32;;;42.85;;
23539;SDS011;11947;50.810;4.394;2022-12-05T02:53:24;163.43;;;43.15;;
23539;SDS011;11947;50.810;4.394;2022-12-05T02:55:53;174.52;;;43.85;;
23539;SDS011;11947;50.810;4.394;2022-12-05T02:58:21;182.65;;;43.97;;
23539;SDS011;11947;50.810;4.394;2022-12-05T03:00:52;175.60;;;42.90;;
23539;SDS011;11947;50.810;4.394;2022-12-05T03:03:26;182.07;;;43.53;;
23539;SDS011;11947;50.810;4.394;2022-12-05T03:08:34;172.82;;;42.58;;
23539;SDS011;11947;50.810;4.394;2022-12-05T03:11:08;171.25;;;43.35;;
23539;SDS011;11947;50.810;4.394;2022-12-05T03:13:39;163.10;;;41.88;;
23539;SDS011;11947;50.810;4.394;2022-12-05T03:16:11;191.60;;;45.83;;
23539;SDS011;11947;50.810;4.394;2022-12-05T03:18:44;193.55;;;44.05;;
23539;SDS011;11947;50.810;4.394;2022-12-05T03:23:50;173.32;;;45.13;;
23539;SDS011;11947;50.810;4.394;2022-12-05T03:40:39;155.23;;;39.67;;
23539;SDS011;11947;50.810;4.394;2022-12-05T03:43:08;155.02;;;40.05;;
23539;SDS011;11947;50.810;4.394;2022-12-05T03:45:45;147.43;;;39.63;;
23539;SDS011;11947;50.810;4.394;2022-12-05T03:50:46;151.50;;;39.38;;
23539;SDS011;11947;50.810;4.394;2022-12-05T03:53:18;139.52;;;38.15;;
23539;SDS011;11947;50.810;4.394;2022-12-05T03:55:53;140.93;;;37.58;;
23539;SDS011;11947;50.810;4.394;2022-12-05T03:58:30;136.23;;;38.65;;
23539;SDS011;11947;50.810;4.394;2022-12-05T04:01:02;136.95;;;38.33;;
23539;SDS011;11947;50.810;4.394;2022-12-05T04:03:32;145.07;;;39.00;;
23539;SDS011;11947;50.810;4.394;2022-12-05T04:06:04;133.93;;;38.13;;
23539;SDS011;11947;50.810;4.394;2022-12-05T04:08:46;120.07;;;36.13;;
23539;SDS011;11947;50.810;4.394;2022-12-05T04:11:18;130.65;;;36.40;;
23539;SDS011;11947;50.810;4.394;2022-12-05T04:13:48;135.13;;;36.13;;
23539;SDS011;11947;50.810;4.394;2022-12-05T04:16:24;113.10;;;34.88;;
23539;SDS011;11947;50.810;4.394;2022-12-05T04:21:44;123.22;;;35.97;;
23539;SDS011;11947;50.810;4.394;2022-12-05T04:24:21;137.48;;;37.72;;
23539;SDS011;11947;50.810;4.394;2022-12-05T04:27:21;121.63;;;35.47;;
23539;SDS011;11947;50.810;4.394;2022-12-05T04:29:53;132.88;;;37.10;;
23539;SDS011;11947;50.810;4.394;2022-12-05T04:32:26;128.15;;;36.42;;
23539;SDS011;11947;50.810;4.394;2022-12-05T04:35:02;136.50;;;37.15;;
23539;SDS011;11947;50.810;4.394;2022-12-05T04:37:36;136.98;;;37.33;;
23539;SDS011;11947;50.810;4.394;2022-12-05T04:40:08;133.32;;;38.28;;
23539;SDS011;11947;50.810;4.394;2022-12-05T04:42:38;138.77;;;37.63;;
23539;SDS011;11947;50.810;4.394;2022-12-05T04:45:06;130.27;;;37.90;;
23539;SDS011;11947;50.810;4.394;2022-12-05T04:47:40;131.05;;;38.70;;
23539;SDS011;11947;50.810;4.394;2022-12-05T04:50:10;138.20;;;38.78;;
23539;SDS011;11947;50.810;4.394;2022-12-05T04:52:38;133.80;;;38.75;;
23539;SDS011;11947;50.810;4.394;2022-12-05T04:55:08;122.68;;;36.88;;
23539;SDS011;11947;50.810;4.394;2022-12-05T05:00:23;121.55;;;36.67;;
23539;SDS011;11947;50.810;4.394;2022-12-05T05:03:07;129.95;;;37.63;;
23539;SDS011;11947;50.810;4.394;2022-12-05T05:05:39;113.68;;;35.17;;
23539;SDS011;11947;50.810;4.394;2022-12-05T05:08:19;125.43;;;35.78;;
23539;SDS011;11947;50.810;4.394;2022-12-05T05:11:00;129.80;;;37.33;;
23539;SDS011;11947;50.810;4.394;2022-12-05T05:13:34;121.75;;;35.10;;
23539;SDS011;11947;50.810;4.394;2022-12-05T05:16:12;117.63;;;37.10;;
23539;SDS011;11947;50.810;4.394;2022-12-05T05:18:44;127.13;;;36.80;;
23539;SDS011;11947;50.810;4.394;2022-12-05T05:21:24;130.43;;;37.15;;
23539;SDS011;11947;50.810;4.394;2022-12-05T05:23:53;128.98;;;36.80;;
23539;SDS011;11947;50.810;4.394;2022-12-05T05:26:19;131.60;;;37.05;;
23539;SDS011;11947;50.810;4.394;2022-12-05T05:28:49;128.07;;;39.35;;
23539;SDS011;11947;50.810;4.394;2022-12-05T05:31:15;132.52;;;38.03;;
23539;SDS011;11947;50.810;4.394;2022-12-05T05:33:48;149.45;;;40.88;;
23539;SDS011;11947;50.810;4.394;2022-12-05T05:36:18;341.25;;;46.90;;
23539;SDS011;11947;50.810;4.394;2022-12-05T05:38:51;142.45;;;40.72;;
23539;SDS011;11947;50.810;4.394;2022-12-05T05:41:19;145.95;;;39.35;;
23539;SDS011;11947;50.810;4.394;2022-12-05T05:43:47;140.05;;;39.90;;
23539;SDS011;11947;50.810;4.394;2022-12-05T05:46:18;285.40;;;46.80;;
23539;SDS011;11947;50.810;4.394;2022-12-05T05:48:48;155.57;;;42.80;;
23539;SDS011;11947;50.810;4.394;2022-12-05T05:51:14;154.45;;;39.90;;
23539;SDS011;11947;50.810;4.394;2022-12-05T05:53:40;142.77;;;39.58;;
23539;SDS011;11947;50.810;4.394;2022-12-05T05:56:07;543.17;;;56.17;;
23539;SDS011;11947;50.810;4.394;2022-12-05T05:58:37;155.45;;;40.60;;
23539;SDS011;11947;50.810;4.394;2022-12-05T06:01:10;139.60;;;38.85;;
23539;SDS011;11947;50.810;4.394;2022-12-05T06:03:38;130.20;;;38.38;;
23539;SDS011;11947;50.810;4.394;2022-12-05T06:06:05;141.23;;;40.92;;
23539;SDS011;11947;50.810;4.394;2022-12-05T06:08:33;149.55;;;40.47;;
23539;SDS011;11947;50.810;4.394;2022-12-05T06:11:14;144.63;;;39.50;;
23539;SDS011;11947;50.810;4.394;2022-12-05T06:13:47;142.45;;;38.35;;
23539;SDS011;11947;50.810;4.394;2022-12-05T06:16:14;421.20;;;49.67;;
23539;SDS011;11947;50.810;4.394;2022-12-05T06:18:44;166.73;;;41.72;;
23539;SDS011;11947;50.810;4.394;2022-12-05T06:21:10;141.45;;;39.53;;
23539;SDS011;11947;50.810;4.394;2022-12-05T06:23:36;141.45;;;38.95;;
23539;SDS011;11947;50.810;4.394;2022-12-05T06:26:03;139.23;;;39.42;;
23539;SDS011;11947;50.810;4.394;2022-12-05T06:28:29;138.98;;;40.90;;
23539;SDS011;11947;50.810;4.394;2022-12-05T06:30:58;144.45;;;39.60;;
23539;SDS011;11947;50.810;4.394;2022-12-05T06:33:23;133.25;;;38.25;;
23539;SDS011;11947;50.810;4.394;2022-12-05T06:35:59;143.63;;;38.45;;
23539;SDS011;11947;50.810;4.394;2022-12-05T06:38:26;142.82;;;38.55;;
23539;SDS011;11947;50.810;4.394;2022-12-05T06:40:52;140.77;;;37.78;;
23539;SDS011;11947;50.810;4.394;2022-12-05T06:43:17;129.52;;;37.55;;
23539;SDS011;11947;50.810;4.394;2022-12-05T06:45:43;127.93;;;37.05;;
23539;SDS011;11947;50.810;4.394;2022-12-05T06:48:09;127.95;;;37.30;;
23539;SDS011;11947;50.810;4.394;2022-12-05T06:50:34;119.75;;;37.78;;
23539;SDS011;11947;50.810;4.394;2022-12-05T06:53:00;126.53;;;35.85;;
23539;SDS011;11947;50.810;4.394;2022-12-05T06:55:28;125.68;;;37.15;;
23539;SDS011;11947;50.810;4.394;2022-12-05T06:57:54;122.65;;;37.00;;
23539;SDS011;11947;50.810;4.394;2022-12-05T07:00:22;161.70;;;38.35;;
23539;SDS011;11947;50.810;4.394;2022-12-05T07:03:09;120.38;;;36.45;;
23539;SDS011;11947;50.810;4.394;2022-12-05T07:05:35;115.72;;;35.63;;
23539;SDS011;11947;50.810;4.394;2022-12-05T07:08:03;125.75;;;36.97;;
23539;SDS011;11947;50.810;4.394;2022-12-05T07:10:28;130.25;;;36.90;;
23539;SDS011;11947;50.810;4.394;2022-12-05T07:12:54;129.80;;;36.00;;
23539;SDS011;11947;50.810;4.394;2022-12-05T07:15:20;117.22;;;36.63;;
23539;SDS011;11947;50.810;4.394;2022-12-05T07:17:48;115.53;;;35.53;;
23539;SDS011;11947;50.810;4.394;2022-12-05T07:20:14;113.00;;;35.50;;
23539;SDS011;11947;50.810;4.394;2022-12-05T07:22:42;115.35;;;35.85;;
23539;SDS011;11947;50.810;4.394;2022-12-05T07:25:13;114.05;;;36.22;;
23539;SDS011;11947;50.810;4.394;2022-12-05T07:27:38;118.80;;;36.40;;
23539;SDS011;11947;50.810;4.394;2022-12-05T07:30:04;115.95;;;36.08;;
23539;SDS011;11947;50.810;4.394;2022-12-05T07:32:33;118.95;;;34.38;;
23539;SDS011;11947;50.810;4.394;2022-12-05T07:34:59;128.75;;;37.28;;
23539;SDS011;11947;50.810;4.394;2022-12-05T07:37:24;115.68;;;36.95;;
23539;SDS011;11947;50.810;4.394;2022-12-05T07:39:52;112.90;;;35.00;;
23539;SDS011;11947;50.810;4.394;2022-12-05T07:42:18;121.43;;;36.92;;
23539;SDS011;11947;50.810;4.394;2022-12-05T07:44:44;257.52;;;40.20;;
23539;SDS011;11947;50.810;4.394;2022-12-05T07:47:10;127.00;;;36.95;;
23539;SDS011;11947;50.810;4.394;2022-12-05T07:49:35;119.15;;;35.88;;
23539;SDS011;11947;50.810;4.394;2022-12-05T07:52:01;101.75;;;33.63;;
23539;SDS011;11947;50.810;4.394;2022-12-05T07:54:27;100.85;;;32.67;;
23539;SDS011;11947;50.810;4.394;2022-12-05T07:56:52;112.78;;;34.42;;
23539;SDS011;11947;50.810;4.394;2022-12-05T07:59:18;103.50;;;34.47;;
23539;SDS011;11947;50.810;4.394;2022-12-05T08:01:44;102.80;;;34.92;;
23539;SDS011;11947;50.810;4.394;2022-12-05T08:04:09;111.10;;;35.40;;
23539;SDS011;11947;50.810;4.394;2022-12-05T08:06:35;101.78;;;33.60;;
23539;SDS011;11947;50.810;4.394;2022-12-05T08:09:01;110.05;;;35.08;;
23539;SDS011;11947;50.810;4.394;2022-12-05T08:11:28;105.35;;;34.83;;
23539;SDS011;11947;50.810;4.394;2022-12-05T08:13:56;114.70;;;35.10;;
23539;SDS011;11947;50.810;4.394;2022-12-05T08:16:24;119.82;;;36.47;;
23539;SDS011;11947;50.810;4.394;2022-12-05T08:18:58;107.30;;;34.65;;
23539;SDS011;11947;50.810;4.394;2022-12-05T08:21:28;118.00;;;35.05;;
23539;SDS011;11947;50.810;4.394;2022-12-05T08:23:54;111.07;;;35.10;;
23539;SDS011;11947;50.810;4.394;2022-12-05T08:26:27;111.93;;;35.60;;
23539;SDS011;11947;50.810;4.394;2022-12-05T08:28:58;119.00;;;34.38;;
23539;SDS011;11947;50.810;4.394;2022-12-05T08:31:27;113.35;;;36.22;;
23539;SDS011;11947;50.810;4.394;2022-12-05T08:33:57;118.97;;;34.95;;
23539;SDS011;11947;50.810;4.394;2022-12-05T08:36:27;126.35;;;36.70;;
23539;SDS011;11947;50.810;4.394;2022-12-05T08:38:55;115.22;;;35.83;;
23539;SDS011;11947;50.810;4.394;2022-12-05T08:41:22;123.38;;;35.05;;
23539;SDS011;11947;50.810;4.394;2022-12-05T08:43:52;116.93;;;36.65;;
23539;SDS011;11947;50.810;4.394;2022-12-05T08:46:18;109.32;;;35.75;;
23539;SDS011;11947;50.810;4.394;2022-12-05T08:48:44;111.72;;;35.80;;
23539;SDS011;11947;50.810;4.394;2022-12-05T08:51:40;124.93;;;35.60;;
23539;SDS011;11947;50.810;4.394;2022-12-05T08:54:07;119.90;;;35.95;;
23539;SDS011;11947;50.810;4.394;2022-12-05T08:56:46;110.97;;;35.03;;
23539;SDS011;11947;50.810;4.394;2022-12-05T08:59:45;111.25;;;34.22;;
23539;SDS011;11947;50.810;4.394;2022-12-05T09:02:14;111.07;;;35.13;;
23539;SDS011;11947;50.810;4.394;2022-12-05T09:04:58;106.53;;;34.10;;
23539;SDS011;11947;50.810;4.394;2022-12-05T09:07:27;104.70;;;34.17;;
23539;SDS011;11947;50.810;4.394;2022-12-05T09:10:02;94.85;;;33.00;;
23539;SDS011;11947;50.810;4.394;2022-12-05T09:12:31;102.03;;;33.20;;
23539;SDS011;11947;50.810;4.394;2022-12-05T09:14:56;98.60;;;33.38;;
23539;SDS011;11947;50.810;4.394;2022-12-05T09:17:31;104.03;;;32.78;;
23539;SDS011;11947;50.810;4.394;2022-12-05T09:20:06;90.05;;;31.92;;
23539;SDS011;11947;50.810;4.394;2022-12-05T09:22:44;98.72;;;33.58;;
23539;SDS011;11947;50.810;4.394;2022-12-05T09:25:22;98.18;;;32.65;;
23539;SDS011;11947;50.810;4.394;2022-12-05T09:27:48;94.80;;;31.88;;
23539;SDS011;11947;50.810;4.394;2022-12-05T09:30:17;85.70;;;31.40;;
23539;SDS011;11947;50.810;4.394;2022-12-05T09:32:42;85.93;;;30.90;;
23539;SDS011;11947;50.810;4.394;2022-12-05T09:35:08;95.57;;;33.05;;
23539;SDS011;11947;50.810;4.394;2022-12-05T09:37:35;95.68;;;31.90;;
23539;SDS011;11947;50.810;4.394;2022-12-05T09:40:05;91.63;;;32.50;;
23539;SDS011;11947;50.810;4.394;2022-12-05T09:42:53;86.53;;;30.90;;
23539;SDS011;11947;50.810;4.394;2022-12-05T09:45:50;78.38;;;29.63;;
23539;SDS011;11947;50.810;4.394;2022-12-05T09:48:26;76.95;;;28.90;;
23539;SDS011;11947;50.810;4.394;2022-12-05T09:51:06;77.82;;;29.10;;
23539;SDS011;11947;50.810;4.394;2022-12-05T09:53:37;84.50;;;30.08;;
23539;SDS011;11947;50.810;4.394;2022-12-05T09:56:20;74.60;;;29.65;;
23539;SDS011;11947;50.810;4.394;2022-12-05T09:58:57;74.07;;;28.00;;
23539;SDS011;11947;50.810;4.394;2022-12-05T10:01:30;78.75;;;28.40;;
23539;SDS011;11947;50.810;4.394;2022-12-05T10:23:26;77.20;;;26.40;;
23539;SDS011;11947;50.810;4.394;2022-12-05T10:26:14;55.10;;;24.92;;
23539;SDS011;11947;50.810;4.394;2022-12-05T10:28:49;63.38;;;27.02;;
23539;SDS011;11947;50.810;4.394;2022-12-05T10:31:41;63.33;;;26.65;;
23539;SDS011;11947;50.810;4.394;2022-12-05T10:37:43;55.72;;;25.23;;
23539;SDS011;11947;50.810;4.394;2022-12-05T10:40:32;58.90;;;26.33;;
23539;SDS011;11947;50.810;4.394;2022-12-05T10:43:30;53.63;;;24.70;;
23539;SDS011;11947;50.810;4.394;2022-12-05T10:46:01;60.40;;;26.38;;
23539;SDS011;11947;50.810;4.394;2022-12-05T10:48:36;57.30;;;25.58;;
23539;SDS011;11947;50.810;4.394;2022-12-05T10:51:23;56.63;;;26.60;;
23539;SDS011;11947;50.810;4.394;2022-12-05T10:53:52;51.28;;;24.08;;
23539;SDS011;11947;50.810;4.394;2022-12-05T11:02:34;54.30;;;24.20;;
23539;SDS011;11947;50.810;4.394;2022-12-05T11:05:02;49.38;;;22.98;;
23539;SDS011;11947;50.810;4.394;2022-12-05T11:10:00;49.60;;;22.60;;
23539;SDS011;11947;50.810;4.394;2022-12-05T11:12:42;46.63;;;22.13;;
23539;SDS011;11947;50.810;4.394;2022-12-05T11:18:32;44.78;;;21.52;;
23539;SDS011;11947;50.810;4.394;2022-12-05T11:20:53;49.88;;;22.83;;
23539;SDS011;11947;50.810;4.394;2022-12-05T11:23:39;48.38;;;22.67;;
23539;SDS011;11947;50.810;4.394;2022-12-05T11:26:13;49.20;;;21.98;;
23539;SDS011;11947;50.810;4.394;2022-12-05T11:29:03;44.22;;;20.88;;
23539;SDS011;11947;50.810;4.394;2022-12-05T11:49:38;43.15;;;19.60;;
23539;SDS011;11947;50.810;4.394;2022-12-05T11:55:50;39.05;;;19.08;;
23539;SDS011;11947;50.810;4.394;2022-12-05T12:30:14;37.40;;;18.77;;
23539;SDS011;11947;50.810;4.394;2022-12-05T12:36:20;39.83;;;18.75;;
23539;SDS011;11947;50.810;4.394;2022-12-05T12:44:49;40.28;;;19.67;;
23539;SDS011;11947;50.810;4.394;2022-12-05T12:48:32;41.38;;;18.98;;
23539;SDS011;11947;50.810;4.394;2022-12-05T12:51:07;39.35;;;19.02;;
23539;SDS011;11947;50.810;4.394;2022-12-05T12:56:20;36.83;;;17.98;;
23539;SDS011;11947;50.810;4.394;2022-12-05T13:02:40;49.72;;;20.75;;
23539;SDS011;11947;50.810;4.394;2022-12-05T13:05:27;53.85;;;24.38;;
23539;SDS011;11947;50.810;4.394;2022-12-05T13:10:49;67.03;;;32.97;;
23539;SDS011;11947;50.810;4.394;2022-12-05T13:13:19;45.70;;;21.02;;
23539;SDS011;11947;50.810;4.394;2022-12-05T13:16:05;41.42;;;20.90;;
23539;SDS011;11947;50.810;4.394;2022-12-05T13:18:34;42.63;;;21.10;;
23539;SDS011;11947;50.810;4.394;2022-12-05T13:21:02;42.13;;;20.77;;
23539;SDS011;11947;50.810;4.394;2022-12-05T13:23:35;43.78;;;21.20;;
23539;SDS011;11947;50.810;4.394;2022-12-05T13:26:09;42.80;;;20.95;;
23539;SDS011;11947;50.810;4.394;2022-12-05T13:31:51;40.78;;;20.58;;
23539;SDS011;11947;50.810;4.394;2022-12-05T13:40:31;72.25;;;22.58;;
23539;SDS011;11947;50.810;4.394;2022-12-05T13:43:25;47.63;;;21.30;;
23539;SDS011;11947;50.810;4.394;2022-12-05T13:48:27;47.22;;;22.00;;
23539;SDS011;11947;50.810;4.394;2022-12-05T13:56:04;47.30;;;21.85;;
23539;SDS011;11947;50.810;4.394;2022-12-05T13:58:48;46.25;;;21.58;;
23539;SDS011;11947;50.810;4.394;2022-12-05T14:04:00;45.25;;;21.80;;
23539;SDS011;11947;50.810;4.394;2022-12-05T14:26:52;46.20;;;21.40;;
23539;SDS011;11947;50.810;4.394;2022-12-05T14:33:00;45.70;;;21.15;;
23539;SDS011;11947;50.810;4.394;2022-12-05T14:36:01;49.00;;;22.48;;
23539;SDS011;11947;50.810;4.394;2022-12-05T14:38:48;51.05;;;23.08;;
23539;SDS011;11947;50.810;4.394;2022-12-05T14:43:43;46.88;;;22.17;;
23539;SDS011;11947;50.810;4.394;2022-12-05T14:52:21;50.83;;;23.42;;
23539;SDS011;11947;50.810;4.394;2022-12-05T14:55:04;48.67;;;22.63;;
23539;SDS011;11947;50.810;4.394;2022-12-05T14:58:09;52.30;;;23.25;;
23539;SDS011;11947;50.810;4.394;2022-12-05T15:07:03;47.83;;;22.40;;
23539;SDS011;11947;50.810;4.394;2022-12-05T15:12:50;54.53;;;22.30;;
23539;SDS011;11947;50.810;4.394;2022-12-05T15:21:24;95.93;;;41.15;;
23539;SDS011;11947;50.810;4.394;2022-12-05T15:24:35;84.47;;;34.55;;
23539;SDS011;11947;50.810;4.394;2022-12-05T15:27:23;73.47;;;29.65;;
23539;SDS011;11947;50.810;4.394;2022-12-05T15:29:52;73.53;;;28.00;;
23539;SDS011;11947;50.810;4.394;2022-12-05T15:32:21;69.25;;;28.00;;
23539;SDS011;11947;50.810;4.394;2022-12-05T15:35:45;70.03;;;26.67;;
23539;SDS011;11947;50.810;4.394;2022-12-05T15:40:50;76.40;;;31.55;;
23539;SDS011;11947;50.810;4.394;2022-12-05T15:43:32;176.38;;;66.88;;
23539;SDS011;11947;50.810;4.394;2022-12-05T15:48:58;92.07;;;34.70;;
23539;SDS011;11947;50.810;4.394;2022-12-05T15:51:52;85.30;;;32.83;;
23539;SDS011;11947;50.810;4.394;2022-12-05T15:54:35;92.18;;;32.50;;
23539;SDS011;11947;50.810;4.394;2022-12-05T15:57:15;79.97;;;30.10;;
23539;SDS011;11947;50.810;4.394;2022-12-05T15:59:51;94.53;;;33.80;;
23539;SDS011;11947;50.810;4.394;2022-12-05T16:02:53;104.35;;;35.92;;
23539;SDS011;11947;50.810;4.394;2022-12-05T16:05:37;86.90;;;32.72;;
23539;SDS011;11947;50.810;4.394;2022-12-05T16:08:08;97.03;;;32.83;;
23539;SDS011;11947;50.810;4.394;2022-12-05T16:10:35;103.18;;;38.45;;
23539;SDS011;11947;50.810;4.394;2022-12-05T16:13:02;97.20;;;33.47;;
23539;SDS011;11947;50.810;4.394;2022-12-05T16:15:29;99.85;;;34.22;;
23539;SDS011;11947;50.810;4.394;2022-12-05T16:17:57;166.52;;;61.78;;
23539;SDS011;11947;50.810;4.394;2022-12-05T16:20:34;112.15;;;38.05;;
23539;SDS011;11947;50.810;4.394;2022-12-05T16:23:01;106.03;;;36.78;;
23539;SDS011;11947;50.810;4.394;2022-12-05T16:25:31;104.70;;;38.83;;
23539;SDS011;11947;50.810;4.394;2022-12-05T16:30:53;106.07;;;36.28;;
23539;SDS011;11947;50.810;4.394;2022-12-05T16:33:41;107.07;;;36.45;;
23539;SDS011;11947;50.810;4.394;2022-12-05T16:36:08;102.28;;;35.35;;
23539;SDS011;11947;50.810;4.394;2022-12-05T16:38:36;113.75;;;35.83;;
23539;SDS011;11947;50.810;4.394;2022-12-05T16:41:07;116.88;;;37.58;;
23539;SDS011;11947;50.810;4.394;2022-12-05T16:43:42;108.95;;;36.17;;
23539;SDS011;11947;50.810;4.394;2022-12-05T16:48:42;125.75;;;44.55;;
23539;SDS011;11947;50.810;4.394;2022-12-05T16:53:41;123.35;;;40.28;;
23539;SDS011;11947;50.810;4.394;2022-12-05T16:59:47;115.47;;;36.85;;
23539;SDS011;11947;50.810;4.394;2022-12-05T17:02:14;115.28;;;38.10;;
23539;SDS011;11947;50.810;4.394;2022-12-05T17:04:43;116.72;;;39.35;;
23539;SDS011;11947;50.810;4.394;2022-12-05T17:07:10;133.02;;;40.47;;
23539;SDS011;11947;50.810;4.394;2022-12-05T17:09:36;140.60;;;41.20;;
23539;SDS011;11947;50.810;4.394;2022-12-05T17:12:17;141.45;;;43.97;;
23539;SDS011;11947;50.810;4.394;2022-12-05T17:14:46;139.63;;;45.45;;
23539;SDS011;11947;50.810;4.394;2022-12-05T17:17:13;139.38;;;43.30;;
23539;SDS011;11947;50.810;4.394;2022-12-05T17:19:42;142.80;;;44.22;;
23539;SDS011;11947;50.810;4.394;2022-12-05T17:22:09;155.55;;;46.42;;
23539;SDS011;11947;50.810;4.394;2022-12-05T17:24:36;137.68;;;41.55;;
23539;SDS011;11947;50.810;4.394;2022-12-05T17:27:01;140.25;;;43.65;;
23539;SDS011;11947;50.810;4.394;2022-12-05T17:29:29;134.52;;;41.75;;
23539;SDS011;11947;50.810;4.394;2022-12-05T17:31:54;149.60;;;44.45;;
23539;SDS011;11947;50.810;4.394;2022-12-05T17:34:20;142.55;;;42.90;;
23539;SDS011;11947;50.810;4.394;2022-12-05T17:36:46;199.55;;;58.85;;
23539;SDS011;11947;50.810;4.394;2022-12-05T17:39:12;158.23;;;49.63;;
23539;SDS011;11947;50.810;4.394;2022-12-05T17:41:37;143.50;;;44.25;;
23539;SDS011;11947;50.810;4.394;2022-12-05T17:44:03;148.90;;;45.20;;
23539;SDS011;11947;50.810;4.394;2022-12-05T17:46:29;140.10;;;44.25;;
23539;SDS011;11947;50.810;4.394;2022-12-05T17:48:55;147.77;;;43.97;;
23539;SDS011;11947;50.810;4.394;2022-12-05T17:51:24;147.18;;;44.50;;
23539;SDS011;11947;50.810;4.394;2022-12-05T17:53:50;155.85;;;46.58;;
23539;SDS011;11947;50.810;4.394;2022-12-05T17:56:16;138.32;;;44.38;;
23539;SDS011;11947;50.810;4.394;2022-12-05T17:58:42;151.75;;;45.65;;
23539;SDS011;11947;50.810;4.394;2022-12-05T18:01:15;144.60;;;45.95;;
23539;SDS011;11947;50.810;4.394;2022-12-05T18:03:42;149.30;;;46.55;;
23539;SDS011;11947;50.810;4.394;2022-12-05T18:06:14;128.57;;;44.10;;
23539;SDS011;11947;50.810;4.394;2022-12-05T18:08:40;138.27;;;45.58;;
23539;SDS011;11947;50.810;4.394;2022-12-05T18:11:08;145.43;;;45.65;;
23539;SDS011;11947;50.810;4.394;2022-12-05T18:13:35;133.45;;;44.30;;
23539;SDS011;11947;50.810;4.394;2022-12-05T18:16:03;136.35;;;43.53;;
23539;SDS011;11947;50.810;4.394;2022-12-05T18:18:29;127.57;;;44.63;;
23539;SDS011;11947;50.810;4.394;2022-12-05T18:21:10;137.75;;;44.65;;
23539;SDS011;11947;50.810;4.394;2022-12-05T18:23:39;128.43;;;43.88;;
23539;SDS011;11947;50.810;4.394;2022-12-05T18:26:06;133.15;;;46.92;;
23539;SDS011;11947;50.810;4.394;2022-12-05T18:28:33;141.65;;;50.03;;
23539;SDS011;11947;50.810;4.394;2022-12-05T18:31:10;139.02;;;50.45;;
23539;SDS011;11947;50.810;4.394;2022-12-05T18:33:41;127.10;;;44.65;;
23539;SDS011;11947;50.810;4.394;2022-12-05T18:36:09;141.27;;;51.58;;
23539;SDS011;11947;50.810;4.394;2022-12-05T18:38:37;133.73;;;46.50;;
23539;SDS011;11947;50.810;4.394;2022-12-05T18:41:04;116.40;;;42.58;;